KBKD/BKD METAR and TAF weather

Enter ICAO airport designator
Station Type Date Time Source
KBKD METAR 2022/06/30 00:55 UTC NOAA

KBKD 300055Z AUTO 11005KT 4SM HZ CLR 34/12 A3006 RMK AO2 T03390115


Station Type Date Time Source
KBKD Decoded METAR 2022/06/30 00:55 UTC NOAA

Station name not available
Jun 29, 2022 - 08:55 PM EDT / 2022.06.30 0055 UTC
Wind: from the ESE (110 degrees) at 6 MPH (5 KT):0
Visibility: 4 mile(s):0
Sky conditions: clear
Weather: haze
Temperature: 93.0 F (33.9 C)
Dew Point: 52.7 F (11.5 C)
Relative Humidity: 25%
Pressure (altimeter): 30.06 in. Hg (1017 hPa)
ob: KBKD 300055Z AUTO 11005KT 4SM HZ CLR 34/12 A3006 RMK AO2 T03390115
cycle: 1

Station Type Date Time Source
KBKD TAF UTC NOAA

Error!

Example: see airport list